Northern Ocean — V7WG5 — position and weather

sailwx.info

Track history (hours):
 
Tides and Currents Weather Stations Pressure Air Temp Water Temp Dewpoint Dewpoint Depression Visibility Wind Speed Wind Dir Waves Ship Positions

Northern Ocean

Last reported at 2018-Jun-18 21:18 UTC. Time now 2018-Jun-19 10:54 UTC.
Position N 27°40' W 015°18'.

Length 183 m; draft 11.6 m.

Type: Tanker. MMSI: 538004294.

Date/timePositionNaut miles runAvg speedWind from/ knotsBaromVisibWave heightAir tempDewpointWater temp
2018-Jun-18 21:18N 27°40' W 015°18'414.0
2018-Jun-18 21:00N 27°43' W 015°16'714.0
2018-Jun-18 20:30N 27°50' W 015°14'714.0
2018-Jun-18 20:00N 27°57' W 015°14'612.8
2018-Jun-18 19:30N 28°03' W 015°18'612.7
2018-Jun-18 19:00N 28°07' W 015°23'1 2.6
2018-Jun-18 18:30N 28°07' W 015°25'0 0.0
2018-Jun-18 18:00N 28°07' W 015°25'0 0.0
2018-Jun-18 17:30N 28°07' W 015°25'0 0.0
2018-Jun-18 17:00N 28°07' W 015°25'0 0.0
2018-Jun-18 16:30N 28°07' W 015°25'0 0.0
2018-Jun-18 16:00N 28°07' W 015°25'0 0.0
2018-Jun-18 15:30N 28°07' W 015°25'0 0.0
2018-Jun-18 15:00N 28°07' W 015°25'0 0.0
2018-Jun-18 14:31N 28°07' W 015°25'0 0.0
2018-Jun-18 14:00N 28°07' W 015°25'0 0.1
2018-Jun-18 13:30N 28°07' W 015°25'0 0.0
2018-Jun-18 13:00N 28°07' W 015°25'0 0.0
2018-Jun-18 12:30N 28°07' W 015°25'0 0.0
2018-Jun-18 12:00N 28°07' W 015°25'0 0.1
2018-Jun-18 11:30N 28°07' W 015°25'0 0.0
2018-Jun-18 10:59N 28°07' W 015°25'0 0.0
2018-Jun-18 10:30N 28°07' W 015°25'0 0.0
2018-Jun-18 10:00N 28°07' W 015°25'0 0.0
2018-Jun-18 09:30N 28°07' W 015°25'0 0.1
2018-Jun-18 09:00N 28°07' W 015°25'0 0.1
2018-Jun-18 08:30N 28°07' W 015°25'0 0.0
2018-Jun-18 08:00N 28°07' W 015°25'0 0.0
2018-Jun-18 07:28N 28°07' W 015°25'0 0.0
2018-Jun-18 07:00N 28°07' W 015°25'0 0.0
2018-Jun-18 06:30N 28°07' W 015°25'0 0.1
2018-Jun-18 06:00N 28°07' W 015°25'0 0.0
2018-Jun-18 05:30N 28°07' W 015°25'0 0.0
2018-Jun-18 05:00N 28°07' W 015°25'0 0.0
2018-Jun-18 04:30N 28°07' W 015°25'1 2.2
2018-Jun-18 04:00N 28°07' W 015°24'3 6.8
2018-Jun-18 03:30N 28°10' W 015°21'510.0
2018-Jun-18 03:00N 28°13' W 015°17'612.5
2018-Jun-18 02:30N 28°18' W 015°13'612.6
2018-Jun-18 02:00N 28°23' W 015°08'612.8
2018-Jun-18 01:30N 28°28' W 015°04'712.8
2018-Jun-18 01:00N 28°33' W 014°59'612.6
2018-Jun-18 00:30N 28°38' W 014°55'612.2
2018-Jun-18 00:00N 28°43' W 014°50'612.0
2018-Jun-17 23:28N 28°48' W 014°46'58112.1
2018-Jun-15 23:35N 35°30' W 006°30'2913.0
2018-Jun-15 21:20N 35°50' W 006°04'412.2
2018-Jun-15 21:00N 35°52' W 005°60'811.0
2018-Jun-15 20:14N 35°56' W 005°51'4 9.7
2018-Jun-15 19:49N 35°57' W 005°46'3 9.1
2018-Jun-15 19:30N 35°57' W 005°42'4 7.9
2018-Jun-15 19:00N 35°57' W 005°37'4 7.5
2018-Jun-15 18:30N 35°59' W 005°33'4 8.5
2018-Jun-15 18:00N 36°00' W 005°28'5 9.4
2018-Jun-15 17:30N 36°02' W 005°23'5 8.9
2018-Jun-15 17:00N 36°04' W 005°18'4 6.9
2018-Jun-15 16:28N 36°08' W 005°18'0 0.0
2018-Jun-15 13:48N 36°08' W 005°18'0 0.1
2018-Jun-15 10:12N 36°08' W 005°18'0 0.2
2018-Jun-15 10:00N 36°08' W 005°18'0 0.0
2018-Jun-15 08:59N 36°08' W 005°18'2 4.1
2018-Jun-15 08:30N 36°08' W 005°16'19911.2
2018-Jun-14 14:43N 36°35' W 001°10'512.2
2018-Jun-14 14:19N 36°35' W 001°04'412.1
2018-Jun-14 14:00N 36°36' W 000°60'712.3
2018-Jun-14 13:25N 36°37' W 000°51'511.9
2018-Jun-14 12:58N 36°38' W 000°44'1312.2
2018-Jun-14 11:55N 36°40' W 000°28'6011.9
2018-Jun-14 06:53N 36°51' E 000°45'411.5
2018-Jun-14 06:30N 36°51' E 000°50'711.3
2018-Jun-14 05:54N 36°53' E 000°59'411.3
2018-Jun-14 05:30N 36°53' E 001°04'611.4
2018-Jun-14 04:59N 36°54' E 001°12'511.4
2018-Jun-14 04:30N 36°55' E 001°18'611.4
2018-Jun-14 04:00N 36°56' E 001°25'611.3
2018-Jun-14 03:30N 36°57' E 001°32'611.3
2018-Jun-14 02:56N 36°58' E 001°40'511.3
2018-Jun-14 02:30N 36°59' E 001°46'611.3
2018-Jun-14 02:00N 37°00' E 001°53'1311.2
2018-Jun-14 00:52N 37°02' E 002°09'1311.3
2018-Jun-13 23:44N 37°05' E 002°25'  
2018-Jun-10 20:33N 37°03' E 002°23'3013.7
2018-Jun-10 18:21N 36°55' E 001°46'2213.7
2018-Jun-10 16:43N 36°48' E 001°19'313.9
2018-Jun-10 16:30N 36°48' E 001°16'714.2
2018-Jun-10 16:00N 36°46' E 001°07'714.4
2018-Jun-10 15:30N 36°44' E 000°59'714.0
2018-Jun-10 15:00N 36°42' E 000°50'1513.8
2018-Jun-10 13:57N 36°38' E 000°33'713.5
2018-Jun-10 13:25N 36°36' E 000°24'5613.3
2018-Jun-10 09:13N 36°21' W 000°43'21113.9
2018-Jun-09 18:03N 36°04' W 005°03'115.6
2018-Jun-09 17:59N 36°04' W 005°05'714.2
2018-Jun-09 17:30N 36°06' W 005°13'4 8.2
2018-Jun-09 17:00N 36°05' W 005°18'2 3.4
2018-Jun-09 16:30N 36°03' W 005°18'510.1
2018-Jun-09 16:00N 35°59' W 005°22'1614.4
2018-Jun-09 14:55N 35°55' W 005°40'  
Track history (hours):
 
Tides and Currents Weather Stations Pressure Air Temp Water Temp Dewpoint Dewpoint Depression Visibility Wind Speed Wind Dir Waves Ship Positions

Northern Ocean

Last reported at 2018-Jun-18 21:18 UTC. Time now 2018-Jun-19 10:54 UTC.
Position N 27°40' W 015°18'.

Length 183 m; draft 11.6 m.

Type: Tanker. MMSI: 538004294.

Date/timePositionNaut miles runAvg speedWind from/ knotsBaromVisibWave heightAir tempDewpointWater temp
2018-Jun-18 21:18N 27°40' W 015°18'414.0
2018-Jun-18 21:00N 27°43' W 015°16'714.0
2018-Jun-18 20:30N 27°50' W 015°14'714.0
2018-Jun-18 20:00N 27°57' W 015°14'612.8
2018-Jun-18 19:30N 28°03' W 015°18'612.7
2018-Jun-18 19:00N 28°07' W 015°23'1 2.6
2018-Jun-18 18:30N 28°07' W 015°25'0 0.0
2018-Jun-18 18:00N 28°07' W 015°25'0 0.0
2018-Jun-18 17:30N 28°07' W 015°25'0 0.0
2018-Jun-18 17:00N 28°07' W 015°25'0 0.0
2018-Jun-18 16:30N 28°07' W 015°25'0 0.0
2018-Jun-18 16:00N 28°07' W 015°25'0 0.0
2018-Jun-18 15:30N 28°07' W 015°25'0 0.0
2018-Jun-18 15:00N 28°07' W 015°25'0 0.0
2018-Jun-18 14:31N 28°07' W 015°25'0 0.0
2018-Jun-18 14:00N 28°07' W 015°25'0 0.1
2018-Jun-18 13:30N 28°07' W 015°25'0 0.0
2018-Jun-18 13:00N 28°07' W 015°25'0 0.0
2018-Jun-18 12:30N 28°07' W 015°25'0 0.0
2018-Jun-18 12:00N 28°07' W 015°25'0 0.1
2018-Jun-18 11:30N 28°07' W 015°25'0 0.0
2018-Jun-18 10:59N 28°07' W 015°25'0 0.0
2018-Jun-18 10:30N 28°07' W 015°25'0 0.0
2018-Jun-18 10:00N 28°07' W 015°25'0 0.0
2018-Jun-18 09:30N 28°07' W 015°25'0 0.1
2018-Jun-18 09:00N 28°07' W 015°25'0 0.1
2018-Jun-18 08:30N 28°07' W 015°25'0 0.0
2018-Jun-18 08:00N 28°07' W 015°25'0 0.0
2018-Jun-18 07:28N 28°07' W 015°25'0 0.0
2018-Jun-18 07:00N 28°07' W 015°25'0 0.0
2018-Jun-18 06:30N 28°07' W 015°25'0 0.1
2018-Jun-18 06:00N 28°07' W 015°25'0 0.0
2018-Jun-18 05:30N 28°07' W 015°25'0 0.0
2018-Jun-18 05:00N 28°07' W 015°25'0 0.0
2018-Jun-18 04:30N 28°07' W 015°25'1 2.2
2018-Jun-18 04:00N 28°07' W 015°24'3 6.8
2018-Jun-18 03:30N 28°10' W 015°21'510.0
2018-Jun-18 03:00N 28°13' W 015°17'612.5
2018-Jun-18 02:30N 28°18' W 015°13'612.6
2018-Jun-18 02:00N 28°23' W 015°08'612.8
2018-Jun-18 01:30N 28°28' W 015°04'712.8
2018-Jun-18 01:00N 28°33' W 014°59'612.6
2018-Jun-18 00:30N 28°38' W 014°55'612.2
2018-Jun-18 00:00N 28°43' W 014°50'612.0
2018-Jun-17 23:28N 28°48' W 014°46'58112.1
2018-Jun-15 23:35N 35°30' W 006°30'2913.0
2018-Jun-15 21:20N 35°50' W 006°04'412.2
2018-Jun-15 21:00N 35°52' W 005°60'811.0
2018-Jun-15 20:14N 35°56' W 005°51'4 9.7
2018-Jun-15 19:49N 35°57' W 005°46'3 9.1
2018-Jun-15 19:30N 35°57' W 005°42'4 7.9
2018-Jun-15 19:00N 35°57' W 005°37'4 7.5
2018-Jun-15 18:30N 35°59' W 005°33'4 8.5
2018-Jun-15 18:00N 36°00' W 005°28'5 9.4
2018-Jun-15 17:30N 36°02' W 005°23'5 8.9
2018-Jun-15 17:00N 36°04' W 005°18'4 6.9
2018-Jun-15 16:28N 36°08' W 005°18'0 0.0
2018-Jun-15 13:48N 36°08' W 005°18'0 0.1
2018-Jun-15 10:12N 36°08' W 005°18'0 0.2
2018-Jun-15 10:00N 36°08' W 005°18'0 0.0
2018-Jun-15 08:59N 36°08' W 005°18'2 4.1
2018-Jun-15 08:30N 36°08' W 005°16'19911.2
2018-Jun-14 14:43N 36°35' W 001°10'512.2
2018-Jun-14 14:19N 36°35' W 001°04'412.1
2018-Jun-14 14:00N 36°36' W 000°60'712.3
2018-Jun-14 13:25N 36°37' W 000°51'511.9
2018-Jun-14 12:58N 36°38' W 000°44'1312.2
2018-Jun-14 11:55N 36°40' W 000°28'6011.9
2018-Jun-14 06:53N 36°51' E 000°45'411.5
2018-Jun-14 06:30N 36°51' E 000°50'711.3
2018-Jun-14 05:54N 36°53' E 000°59'411.3
2018-Jun-14 05:30N 36°53' E 001°04'611.4
2018-Jun-14 04:59N 36°54' E 001°12'511.4
2018-Jun-14 04:30N 36°55' E 001°18'611.4
2018-Jun-14 04:00N 36°56' E 001°25'611.3
2018-Jun-14 03:30N 36°57' E 001°32'611.3
2018-Jun-14 02:56N 36°58' E 001°40'511.3
2018-Jun-14 02:30N 36°59' E 001°46'611.3
2018-Jun-14 02:00N 37°00' E 001°53'1311.2
2018-Jun-14 00:52N 37°02' E 002°09'1311.3
2018-Jun-13 23:44N 37°05' E 002°25'  
2018-Jun-10 20:33N 37°03' E 002°23'3013.7
2018-Jun-10 18:21N 36°55' E 001°46'2213.7
2018-Jun-10 16:43N 36°48' E 001°19'313.9
2018-Jun-10 16:30N 36°48' E 001°16'714.2
2018-Jun-10 16:00N 36°46' E 001°07'714.4
2018-Jun-10 15:30N 36°44' E 000°59'714.0
2018-Jun-10 15:00N 36°42' E 000°50'1513.8
2018-Jun-10 13:57N 36°38' E 000°33'713.5
2018-Jun-10 13:25N 36°36' E 000°24'5613.3
2018-Jun-10 09:13N 36°21' W 000°43'21113.9
2018-Jun-09 18:03N 36°04' W 005°03'115.6
2018-Jun-09 17:59N 36°04' W 005°05'714.2
2018-Jun-09 17:30N 36°06' W 005°13'4 8.2
2018-Jun-09 17:00N 36°05' W 005°18'2 3.4
2018-Jun-09 16:30N 36°03' W 005°18'510.1
2018-Jun-09 16:00N 35°59' W 005°22'1614.4
2018-Jun-09 14:55N 35°55' W 005°40'  

Dump ship's entire track history